Disclaimer   
PNR Super Search
 ♦ 
×
HashTag:
PNR Number:
Train Type:
Train:
From Station:
To Station:
Train Class:
2SSLCCEx3AFC2A1A3E
WL Quota:
DOJ From:
DOJ To:
Blogger:
Traveller:
Predictor:
Prediction:
WLRACConf
Stamper:
Final:
WLRACConfVoidQ-ConfUnStamped
Status:
Reaction:

Search
  Go  
 
Thu May 28, 2015 01:38:07 ISTHomeTrainsΣChainsAtlasPNRForumGalleryNewsFAQTripsMembersLoginFeedback
Thu May 28, 2015 01:38:07 IST
Post PNRPNR StatusModify Search

Ticket PNR Status Inquiry - PNR: 213-xxxxxxx (E-Ticket)

OLD STATUS

Status Last Updated on: Jul 15 2012 (4:19PM) IST

Date of Journey: Sun Aug 05, 2012   Class: AC 3-tier - 3A   (Total Seats available for this Class/Quota: Avbl >18)
Passenger 1: Confirmed (Booking Status: B1,40,GN)
Chart NOT Prepared

Amritsar - Mumbai LTT (Pathankot) Express/11058

Travel Time: 22h 28m    47 halts    Distance: 1125 km    Avg Speed: 50 km/hr
Peak Observed Speed: n/a
Type: Mail/Express
Zone: CR/Central
Departs @ 20:50 (Avg 22m late)
Platform# 4
SMTWTFS
NDLS/New Delhi 
Arrives @ 19:18 +1 night (Avg 1h 13m late)
Platform# 2
SMTWTFS
JL/Jalgaon Junction 

47 halts. 156 intermediate Stations between New Delhi and Jalgaon Junction

Show ALL intermediate Stations  Show Old Time-Table

#TrkCodeStation NameX/OArrivesAvgDepartsAvgHaltPFDay#KmSpeedElevZoneAddress
1/==/ASRAmritsar Junction  -08:30+1241-502.977233mNRAmritsar 143001, Punjab
2/==/JNLJandialaX  08:45+2208:47+222m21-483.768238mNRJandiala, Punjab
3/==/BEASBeas JunctionX  09:08+2509:10+252m21-459.961238mNRBeas, Punjab
4/==/KREKartarpurX  09:31+2309:33+242m11-438.473236mNRKartarpur, Punjab
5/==/JUCJalandhar City JunctionX  09:45+3009:55+2810m21-423.818239mNRJalandhar 144001, Punjab
6/==/JRCJalandhar Cantt. JunctionX  10:11+2110:13+212m21-418.970239mNRNear Rama Mandi, Punjab
7/==/PGWPhagwara JunctionX  10:27+2310:29+232m11-402.654245mNRPhagwara, Punjab
8/==/GRYGoraya  10:40+2410:42+232m11-392.864240mNRGoraya, Punjab
9/==/PHRPhillaur JunctionXO  10:54+2310:56+242m11-380.133246mNRPunjab, Punjab
10/==/LDHLudhiana Junction  11:20+1811:30+2910m41-367.029246mNRLudhiana 141001, Punjab
11|--|AHHAhmadgarh  12:23+2012:25+212m11-341.679256mNRAhmedgarh, Punjab
12|--|METMalerkotlaX  12:40+2712:42+282m21-321.753248mNRMalerkotla., Punjab
13|--|DUIDhuri Junction  13:01+2913:04+303m--1-304.973248mNRDhuri, Punjab
14|--|NBANabha  13:26+3713:28+372m11-278.070250mNRNabha, Punjab
15|--|PTAPatialaX  13:50+4313:53+473m11-252.137256mNRPatiala 147001, Punjab
16|--|RPJRajpura JunctionOO  14:33+3914:35+412m21-227.359272mNRNH-1., Punjab
17/==/UBCAmbala CityXO  14:56+3814:58+382m11-206.821273mNRNH-1, Haryana
18/==/UMBAmbala Cantt. JunctionXO15:20+3115:55+3535m--1-199.285278mNRAmbala 133001, Haryana
19/==/SHDMShahbad Markanda  16:09+3316:11+332m11-179.378267mNRShahabad Markanda, Haryana
20/==/KKDEKurukshetra JunctionX  16:28+3516:30+352m21-157.160260mNRKurukshetra, Haryana
21/==/NLKRNilokheriX  16:47+3516:49+352m--1-140.134254mNRNilokheri, Haryana
22/==/TRRTaraoriX  16:56+3316:58+342m21-136.140255mNRTaraori, Haryana
23/==/KUNKarnal  17:16+3017:18+302m11-124.066253mNRKarnal, Haryana
24/==/GRAGharaunda  17:34+2917:36+292m11-106.656244mNRGharaunda, Haryana
25/==/PNPPanipat JunctionX  17:54+2717:56+272m21-89.660235mNRHaryana, Haryana
26/==/SMKSamalkha  18:13+2618:15+272m11-72.657229mNRSamalkha, Haryana
27/==/GNUGanaur  18:28+2518:30+252m11-60.460222mNRGanaur, Haryana
28/==/SNPSonipat  18:46+2718:48+282m11-44.548225mNRSonipat, Haryana
29/==/RDDERathdhanaX  19:01+2719:03+282m11-34.050223mNRSonipat, Haryana
30/==/NURNarela  19:11+2719:13+282m11-27.459222mNRNarela, Delhi NCT
31/==/ANDIAdarsh Nagar  19:30+2919:32+302m11-10.721214mNRShalimar Bagh, Delhi NCT
32/==/SZMDelhi Sabzi Mandi  19:51+2619:53+282m31-4.19220mNRGulabi Bagh, Delhi NCT
33/==/NDLSNew Delhi»X  20:20+2420:50+2230m410.034215mNRNew Delhi 110002, Delhi NCT
34/==/NZMDelhi Hazrat NizamuddinX  21:03+3221:05+362m417.457209mNRNew Delhi 110013, Delhi NCT
35/==/FDBFaridabadX  21:27+4021:29+432m3128.237206mNRold Faridabad, Haryana
36/==/BVHBallabgarhO  21:42+4321:44+442m4136.229203mNRFaridabad, Haryana
37/==/PWLPalwal  22:28+2222:30+242m5157.485200mNRPalwal, Haryana
38/==/KSVKosi Kalan  23:00+3123:02+322m2199.975189mNCRKosi Kalan, Uttar Pradesh
39/==/MTJMathura Junction  23:35+3723:40+375m11141.356179mNCRMathura, Uttar Pradesh
40/==/RKMRaja Ki MandiX  00:33+3500:35+362m22191.012170mNCRAgra, Uttar Pradesh
41/==/AGCAgra Cantt.X  00:55+2801:03+428m12195.079174mNCRAgra, Uttar Pradesh
42/==/DHODholpur JunctionXO  01:43+4601:45+472m22247.673177mNCRDholpur, Rajasthan
43/==/MRAMorenaX  02:07+5002:09+532m12274.556176mNCRMorena, Madhya Pradesh
44/==/GWLGwalior JunctionX  02:50+4702:58+448m12313.073214mNCRGwalior, Madhya Pradesh
45/==/DBADabraX  03:33+4903:35+502m22355.349207mNCRDabra(District-Gwalior), Madhya Pradesh
46/==/SORSonagirX  03:58+4704:00+492m--2374.246211mNCRDatia, Madhya Pradesh
47/==/DAADatiaX  04:15+5104:17+522m22385.746264mNCRDatia, Madhya Pradesh
48/==/JHSJhansi JunctionX  04:50+5505:00+1:0110m52410.761259mNCRJhansi, Uttar Pradesh
49/==/BABBabinaX  05:25+1:0905:27+1:102m12436.252285mNCRBabina, Uttar Pradesh
50/==/BZYBasai  05:41+1:1005:43+1:112m12448.351287mNCR07522289600, Madhya Pradesh
51/==/TBTTalbahatX  05:58+1:1006:00+1:132m12461.252314mNCRKhaniyadhana Station Rd, Madhya Pradesh
52/==/LARLalitpurX  06:46+1:0206:48+1:082m22501.177373mNCRLalitpur, Uttar Pradesh
53/==/JLNJakhalaunXO  07:01+1:1307:03+1:142m22517.899394mNCRLalitpur(05176-272220), Uttar Pradesh
54/==/DUADhauraXO  07:10+1:1807:12+1:212m--2529.420407mNCRDhaura Tanda, Madhya Pradesh
55/==/BINABina JunctionX  08:55+2909:00+335m32564.069414mWCRBina District Saugor, Madhya Pradesh
56/==/MABAMandi BamoraX  09:15+3909:17+402m22581.278413mWCRState Highway 14 District Vidisha, Madhya Pradesh
57/==/BAQGanj BasodaX  09:39+4209:41+422m22609.769415mWCRDistrict Vidisha, Madhya Pradesh
58/==/GLGGulabGanjX  09:57+4209:59+422m--2628.074433mWCRVidisha, Madhya Pradesh
59/==/BHSVidishaX  10:16+4610:18+472m22649.056433mWCRVidisha, Madhya Pradesh
60/==/SCISanchiX  10:28+4810:30+502m--2658.466428mWCRRaisen, Madhya Pradesh
61/==/BPLBhopal JunctionX  11:10+5611:15+1:005m12702.538497mWCRBhopal, Madhya Pradesh
62/==/HBJBhopal HabibGanj  11:25+1:0311:27+1:032m42708.864496mWCRHabibGanj, Madhya Pradesh
63/==/MDDPMandi Dip  11:42+1:0511:44+1:052m12724.962455mWCRHoshangabad Road Mandideep District Raisen, Madhya Pradesh
64/==/ODGObaidulla Ganj  11:57+1:0811:59+1:082m12738.454448mWCRObaidullaganj Raisen Dist., Madhya Pradesh
65/==/BNIBudniX  12:33+1:1712:35+1:172m12769.246311mWCRDistrict Sehore 466445, Madhya Pradesh
66/==/HBDHoshangabadX  12:44+1:1812:46+1:192m22776.232308mWCRHoshangabad, Madhya Pradesh
67/==/ETItarsi Junction  13:20+1:1213:25+1:205m22794.384329mWCRItarsi 461111, Madhya Pradesh